Time;durP1;ratioP1;P1;durP2;ratioP2;P2;SDS_P1;SDS_P2;PMS_P1;PMS_P2;Temp;Humidity;BMP_temperature;BMP_pressure;BME280_temperature;BME280_humidity;BME280_pressure;Samples;Min_cycle;Max_cycle;Signal;HPM_P1;HPM_P2
2023/07/08 00:00:20;;;;;;;11.80;2.70;;;;;;;15.20;78.76;101186.75;5128900;28;20026;-70
2023/07/08 00:02:45;;;;;;;6.18;1.75;;;;;;;15.24;78.36;101194.53;5128855;28;20020;-69
2023/07/08 00:05:13;;;;;;;8.65;3.03;;;;;;;15.10;78.65;101176.44;5129164;28;20172;-70
2023/07/08 00:07:39;;;;;;;8.00;2.53;;;;;;;15.22;78.85;101195.47;5110362;28;20050;-69
2023/07/08 00:10:26;;;;;;;3.45;1.85;;;;;;;15.21;79.65;101196.31;5128844;28;20019;-70
2023/07/08 00:12:53;;;;;;;3.22;1.90;;;;;;;15.17;79.51;101198.16;5128932;28;20019;-69
2023/07/08 00:15:22;;;;;;;13.82;2.65;;;;;;;15.17;79.62;101202.50;5128864;28;20036;-70
2023/07/08 00:17:47;;;;;;;4.10;1.88;;;;;;;15.11;79.26;101193.84;5128674;28;20025;-69
2023/07/08 00:20:39;;;;;;;3.20;2.05;;;;;;;15.15;80.21;101207.75;5128770;28;20043;-69
2023/07/08 00:23:05;;;;;;;4.20;2.08;;;;;;;15.18;79.31;101205.09;5128624;28;20024;-69
2023/07/08 00:25:32;;;;;;;8.57;2.15;;;;;;;15.18;79.21;101209.44;5128650;28;20088;-69
2023/07/08 00:27:58;;;;;;;4.80;1.80;;;;;;;15.16;79.09;101203.41;5128485;28;20024;-70
2023/07/08 00:30:30;;;;;;;5.22;2.03;;;;;;;15.17;79.17;101202.50;5128523;28;20034;-69
2023/07/08 00:32:57;;;;;;;3.65;1.50;;;;;;;15.11;79.49;101199.09;5128505;28;20024;-69
2023/07/08 00:35:43;;;;;;;5.10;2.05;;;;;;;15.14;79.77;101199.94;5109969;28;20028;-70
2023/07/08 00:38:26;;;;;;;7.32;2.60;;;;;;;15.11;80.09;101198.25;5128220;28;20047;-69
2023/07/08 00:41:09;;;;;;;6.97;2.28;;;;;;;15.09;80.13;101203.50;5110004;28;20036;-69
2023/07/08 00:43:58;;;;;;;3.90;1.70;;;;;;;15.07;80.60;101200.03;5109871;28;20023;-69
2023/07/08 00:46:26;;;;;;;8.60;2.20;;;;;;;15.08;80.46;101198.28;5101503;28;20036;-69
2023/07/08 00:48:55;;;;;;;4.60;2.28;;;;;;;15.07;80.55;101192.19;5109641;28;20027;-70
2023/07/08 00:51:22;;;;;;;8.63;2.15;;;;;;;15.05;80.59;101188.72;5128249;28;20031;-69
2023/07/08 00:53:48;;;;;;;5.70;2.33;;;;;;;15.02;80.69;101180.91;5128159;28;20373;-69
2023/07/08 00:56:22;;;;;;;7.53;2.03;;;;;;;15.07;80.58;101189.56;5127879;28;20529;-69
2023/07/08 00:59:01;;;;;;;4.75;2.13;;;;;;;15.10;80.54;101188.66;5127325;28;20015;-70
2023/07/08 01:01:29;;;;;;;4.05;2.33;;;;;;;15.14;80.22;101198.19;5109458;28;20395;-71
2023/07/08 01:04:01;;;;;;;3.83;1.88;;;;;;;15.17;80.19;101197.28;5128055;28;20024;-70
2023/07/08 01:06:31;;;;;;;6.22;1.85;;;;;;;15.17;80.02;101192.03;5127872;28;20016;-70
2023/07/08 01:08:59;;;;;;;5.30;2.25;;;;;;;15.18;79.93;101194.63;5127648;28;20020;-69
2023/07/08 01:11:24;;;;;;;3.90;2.05;;;;;;;15.17;79.90;101197.28;5127752;28;20028;-68
2023/07/08 01:13:51;;;;;;;5.32;1.80;;;;;;;15.18;79.52;101201.59;5109495;28;20115;-69
2023/07/08 01:16:17;;;;;;;5.63;2.10;;;;;;;15.17;79.67;101202.50;5127780;28;20027;-69
2023/07/08 01:18:43;;;;;;;5.05;1.98;;;;;;;15.16;79.68;101198.16;5109290;28;20025;-71
2023/07/08 01:21:34;;;;;;;4.40;2.13;;;;;;;15.16;79.33;101198.16;5127367;28;20019;-70
2023/07/08 01:24:02;;;;;;;6.78;2.70;;;;;;;15.15;79.34;101191.19;5127674;28;20026;-70
2023/07/08 01:26:29;;;;;;;11.70;2.55;;;;;;;15.13;79.12;101198.22;5127529;28;20029;-70
2023/07/08 01:28:55;;;;;;;3.13;1.98;;;;;;;15.11;78.89;101199.09;5127185;28;20034;-70
2023/07/08 01:31:23;;;;;;;2.85;1.92;;;;;;;15.11;78.81;101187.78;5127348;28;20088;-70
2023/07/08 01:33:50;;;;;;;4.18;2.22;;;;;;;15.14;78.59;101197.31;5108952;28;20024;-70
2023/07/08 01:36:16;;;;;;;10.57;2.30;;;;;;;15.13;78.51;101193.84;5127094;28;20026;-69
2023/07/08 01:38:43;;;;;;;6.07;2.13;;;;;;;15.13;78.37;101193.84;5126961;28;20027;-70
2023/07/08 01:41:12;;;;;;;2.55;1.98;;;;;;;15.17;78.19;101194.66;5108976;28;20112;-69
2023/07/08 01:43:37;;;;;;;4.03;2.20;;;;;;;15.13;77.98;101195.59;5108802;28;20386;-70
2023/07/08 01:46:07;;;;;;;4.70;1.90;;;;;;;15.17;77.68;101192.03;5127071;28;20492;-71
2023/07/08 01:48:38;;;;;;;11.40;2.40;;;;;;;15.15;78.05;101193.81;5127034;28;20026;-69
2023/07/08 01:51:05;;;;;;;3.17;2.23;;;;;;;15.15;77.70;101193.81;5127280;28;20023;-70
2023/07/08 01:53:41;;;;;;;10.10;2.03;;;;;;;15.10;77.75;101194.75;5126739;28;20276;-70
2023/07/08 01:56:07;;;;;;;8.35;1.85;;;;;;;15.11;77.28;101198.25;5108541;28;20039;-69
2023/07/08 01:58:34;;;;;;;7.85;2.45;;;;;;;15.11;77.55;101201.69;5126626;28;20057;-70
2023/07/08 02:01:00;;;;;;;3.63;1.75;;;;;;;15.06;77.41;101193.09;5126627;28;20023;-71
2023/07/08 02:03:26;;;;;;;4.00;1.73;;;;;;;15.09;77.05;101200.88;5126644;28;20072;-70
2023/07/08 02:05:51;;;;;;;5.10;2.53;;;;;;;15.08;77.29;101198.28;5126825;28;20023;-70
2023/07/08 02:08:17;;;;;;;5.28;2.50;;;;;;;15.03;77.50;101200.94;5126241;28;20056;-70
2023/07/08 02:10:49;;;;;;;5.57;2.08;;;;;;;14.98;77.29;101192.31;5125449;28;20019;-70
2023/07/08 02:13:14;;;;;;;3.33;2.30;;;;;;;14.99;76.94;101188.81;5126512;28;20034;-70
2023/07/08 02:15:39;;;;;;;3.28;2.00;;;;;;;15.04;76.77;101200.06;5126438;28;20118;-69
2023/07/08 02:18:05;;;;;;;5.25;2.28;;;;;;;14.99;76.74;101194.03;5126362;28;20426;-69
2023/07/08 02:20:30;;;;;;;8.07;1.80;;;;;;;14.95;76.53;101187.97;5126368;28;20027;-69
2023/07/08 02:22:56;;;;;;;3.53;2.22;;;;;;;14.90;77.03;101189.81;5107709;28;20043;-70
2023/07/08 02:25:21;;;;;;;4.53;1.90;;;;;;;14.89;77.51;101192.44;5126209;28;20019;-70
2023/07/08 02:27:47;;;;;;;4.20;2.00;;;;;;;14.78;77.48;101182.97;5126305;28;20028;-70
2023/07/08 02:30:12;;;;;;;8.65;3.08;;;;;;;14.85;78.02;101189.88;5107978;28;20024;-70
2023/07/08 02:32:38;;;;;;;6.38;2.15;;;;;;;14.87;77.91;101201.16;5126065;28;20027;-71
2023/07/08 02:35:05;;;;;;;2.88;1.65;;;;;;;14.89;77.88;101202.91;5126276;28;20027;-71
2023/07/08 02:37:32;;;;;;;7.25;2.00;;;;;;;14.96;78.03;101204.53;5125747;28;20038;-70
2023/07/08 02:39:57;;;;;;;2.70;1.98;;;;;;;15.02;77.55;101200.97;5126033;28;20039;-70
2023/07/08 02:42:23;;;;;;;8.23;2.15;;;;;;;15.04;77.20;101197.47;5107411;28;20027;-70
2023/07/08 02:44:48;;;;;;;5.18;2.08;;;;;;;15.10;76.81;101197.38;5125747;28;20030;-70
2023/07/08 02:47:14;;;;;;;18.85;3.30;;;;;;;15.04;77.02;101196.59;5107596;28;20023;-70
2023/07/08 02:49:39;;;;;;;5.55;2.45;;;;;;;14.99;76.92;101197.53;5125784;28;20016;-70
2023/07/08 02:52:05;;;;;;;3.10;2.15;;;;;;;14.95;77.30;101195.81;5125553;28;20140;-70
2023/07/08 02:54:30;;;;;;;9.43;1.98;;;;;;;14.98;76.86;101190.53;5107574;28;20539;-70
2023/07/08 02:56:55;;;;;;;5.68;2.13;;;;;;;14.99;76.53;101186.19;5125650;28;20076;-70
2023/07/08 02:59:21;;;;;;;4.90;2.13;;;;;;;14.99;76.46;101183.59;5125732;28;20026;-70
2023/07/08 03:01:46;;;;;;;8.68;2.33;;;;;;;15.02;76.27;101191.38;5107320;28;20019;-69
2023/07/08 03:04:13;;;;;;;4.63;2.17;;;;;;;15.06;76.48;101190.47;5125668;28;20047;-69
2023/07/08 03:06:40;;;;;;;3.38;1.98;;;;;;;15.08;76.27;101196.50;5107255;28;20034;-70
2023/07/08 03:09:07;;;;;;;2.70;1.90;;;;;;;15.12;76.59;101194.72;5125237;28;20024;-70
2023/07/08 03:11:32;;;;;;;4.25;1.60;;;;;;;15.19;76.39;101191.13;5125659;28;20030;-69
2023/07/08 03:13:58;;;;;;;7.75;2.35;;;;;;;15.36;76.60;101190.88;5125497;28;20051;-70
2023/07/08 03:16:23;;;;;;;5.03;2.10;;;;;;;15.64;76.94;101194.78;5125643;28;20015;-70
2023/07/08 03:18:48;;;;;;;6.40;2.45;;;;;;;15.99;77.93;101202.91;5125195;28;20015;-71
2023/07/08 03:21:16;;;;;;;5.78;2.30;;;;;;;16.50;79.04;101195.88;5125092;28;20073;-70
2023/07/08 03:23:41;;;;;;;3.20;2.25;;;;;;;17.03;79.48;101191.25;5125367;28;20497;-70
2023/07/08 03:26:12;;;;;;;2.92;1.85;;;;;;;17.64;79.99;101190.66;5107213;28;20051;-70
2023/07/08 03:28:37;;;;;;;10.93;2.45;;;;;;;18.19;79.68;101192.75;5125227;28;20045;-71
2023/07/08 03:31:03;;;;;;;5.35;1.73;;;;;;;18.51;78.86;101194.50;5125327;28;20324;-70
2023/07/08 03:33:28;;;;;;;3.72;1.88;;;;;;;18.60;78.13;101198.59;5125340;28;20115;-70
2023/07/08 03:35:55;;;;;;;11.13;2.40;;;;;;;18.52;77.29;101202.34;5125299;28;20023;-70
2023/07/08 03:38:20;;;;;;;2.10;1.55;;;;;;;18.37;76.70;101202.78;5125089;28;20188;-70
2023/07/08 03:40:46;;;;;;;1.55;1.38;;;;;;;18.19;76.69;101199.78;5125173;28;20079;-70
2023/07/08 03:43:11;;;;;;;8.90;1.90;;;;;;;18.04;76.29;101201.88;5106915;28;20020;-70
2023/07/08 03:45:37;;;;;;;2.22;1.67;;;;;;;17.84;76.05;101192.75;5125067;28;20035;-70
2023/07/08 03:48:02;;;;;;;3.88;1.67;;;;;;;17.66;74.40;101198.50;5124966;28;20024;-70
2023/07/08 03:50:28;;;;;;;1.83;1.33;;;;;;;17.45;74.24;101199.00;5125219;28;20015;-69
2023/07/08 03:52:54;;;;;;;6.85;1.98;;;;;;;17.41;74.46;101207.00;5125249;28;20211;-70
2023/07/08 03:55:20;;;;;;;4.20;2.10;;;;;;;17.28;74.79;101212.53;5106730;28;20023;-69
2023/07/08 03:57:46;;;;;;;5.10;1.80;;;;;;;17.16;74.71;101207.56;5124968;28;20027;-71
2023/07/08 04:00:12;;;;;;;6.47;2.10;;;;;;;17.08;74.36;101220.84;5125126;28;20020;-70
2023/07/08 04:02:38;;;;;;;2.92;1.77;;;;;;;16.97;74.43;101208.84;5125133;28;20046;-70
2023/07/08 04:05:05;;;;;;;1.98;1.15;;;;;;;16.89;74.32;101213.38;5125204;28;20035;-70
2023/07/08 04:07:31;;;;;;;6.07;2.33;;;;;;;16.84;74.25;101213.47;5124860;28;20037;-69
2023/07/08 04:09:56;;;;;;;3.38;1.67;;;;;;;16.81;74.20;101213.53;5124995;28;20012;-73
2023/07/08 04:12:22;;;;;;;3.08;1.92;;;;;;;16.80;74.08;101217.06;5125012;28;20059;-70
2023/07/08 04:14:47;;;;;;;3.05;1.58;;;;;;;16.79;74.00;101215.31;5125214;28;20075;-69
2023/07/08 04:17:14;;;;;;;5.35;1.95;;;;;;;16.79;74.27;101217.94;5106611;28;20016;-70
2023/07/08 04:19:39;;;;;;;6.05;1.95;;;;;;;16.85;74.42;101223.06;5124724;28;20012;-70
2023/07/08 04:22:06;;;;;;;4.95;2.10;;;;;;;16.92;74.18;101231.66;5124739;28;20031;-70
2023/07/08 04:24:31;;;;;;;3.22;2.00;;;;;;;16.98;74.39;101230.69;5125016;28;20026;-70
2023/07/08 04:26:58;;;;;;;2.03;1.65;;;;;;;17.00;74.13;101234.13;5106363;28;20043;-70
2023/07/08 04:29:24;;;;;;;4.00;1.73;;;;;;;17.03;74.19;101231.41;5124728;28;20046;-70
2023/07/08 04:31:50;;;;;;;2.28;1.48;;;;;;;17.07;74.32;101230.47;5124749;28;20043;-69
2023/07/08 04:34:16;;;;;;;4.18;1.60;;;;;;;17.14;74.09;101231.22;5126726;28;20031;-70
2023/07/08 04:36:42;;;;;;;10.80;2.33;;;;;;;17.12;74.21;101226.91;5128439;28;20026;-71
2023/07/08 04:39:09;;;;;;;3.55;1.75;;;;;;;17.24;73.83;101231.88;5128216;28;20035;-71
2023/07/08 04:41:40;;;;;;;2.90;1.92;;;;;;;17.26;73.79;101224.84;5128476;28;20076;-70
2023/07/08 04:44:18;;;;;;;4.35;2.10;;;;;;;17.39;73.71;101232.41;5128357;28;20050;-70
2023/07/08 04:46:50;;;;;;;3.88;1.90;;;;;;;17.66;74.39;101240.50;5128312;28;20019;-70
2023/07/08 04:49:16;;;;;;;2.22;2.00;;;;;;;18.36;76.33;101229.97;5128051;28;20020;-70
2023/07/08 04:51:42;;;;;;;6.95;1.80;;;;;;;19.51;77.29;101237.06;5128186;28;20024;-70
2023/07/08 04:54:08;;;;;;;3.28;1.70;;;;;;;20.79;77.14;101232.63;5109694;28;20028;-70
2023/07/08 04:56:48;;;;;;;3.95;1.95;;;;;;;22.23;70.62;101240.03;5128498;28;20027;-71
2023/07/08 04:59:16;;;;;;;1.73;1.30;;;;;;;23.55;67.94;101234.81;5109475;28;20022;-68
2023/07/08 05:01:42;;;;;;;7.07;1.80;;;;;;;24.84;66.64;101229.03;5127889;28;20027;-69
2023/07/08 05:04:10;;;;;;;5.30;1.52;;;;;;;25.73;66.61;101227.56;5127907;28;20024;-70
2023/07/08 05:06:36;;;;;;;2.13;1.50;;;;;;;26.32;64.05;101228.47;5127747;28;20379;-69
2023/07/08 05:09:03;;;;;;;3.67;1.65;;;;;;;26.66;62.80;101233.44;5128214;28;20051;-70
2023/07/08 05:11:28;;;;;;;1.80;1.13;;;;;;;27.13;60.03;101235.81;5127952;28;20026;-69
2023/07/08 05:13:55;;;;;;;2.15;0.98;;;;;;;28.03;61.97;101236.09;5127851;28;20035;-70
2023/07/08 05:16:20;;;;;;;3.15;1.40;;;;;;;28.67;61.06;101226.31;5127694;28;20024;-70
2023/07/08 05:18:46;;;;;;;2.38;1.50;;;;;;;28.89;58.77;101232.72;5109397;28;20133;-70
2023/07/08 05:21:11;;;;;;;3.90;1.85;;;;;;;29.25;55.79;101235.50;5127757;28;20076;-69
2023/07/08 05:23:37;;;;;;;4.03;1.65;;;;;;;29.58;51.96;101236.59;5127551;28;20023;-70
2023/07/08 05:26:04;;;;;;;4.00;1.15;;;;;;;29.79;50.33;101238.59;5127538;28;20027;-71
2023/07/08 05:28:30;;;;;;;5.18;1.13;;;;;;;30.24;47.06;101234.25;5127223;28;20076;-69
2023/07/08 05:30:56;;;;;;;2.65;1.20;;;;;;;30.52;45.51;101240.06;5127318;28;20030;-69
2023/07/08 05:33:26;;;;;;;3.13;1.25;;;;;;;31.08;42.18;101238.25;5108776;28;20051;-70
2023/07/08 05:35:53;;;;;;;4.00;1.38;;;;;;;31.41;43.36;101236.41;5127371;28;20020;-70
2023/07/08 05:38:18;;;;;;;2.75;1.23;;;;;;;31.39;42.13;101241.06;5127008;28;20030;-69
2023/07/08 05:40:53;;;;;;;5.50;1.52;;;;;;;31.81;43.70;101239.34;5127111;28;20052;-70
2023/07/08 05:43:19;;;;;;;1.00;0.90;;;;;;;31.66;40.25;101242.34;5108894;28;20055;-70
2023/07/08 05:45:45;;;;;;;3.75;1.60;;;;;;;31.54;39.23;101243.41;5127307;28;20064;-70
2023/07/08 05:48:10;;;;;;;2.55;0.98;;;;;;;31.59;39.22;101243.03;5127097;28;20031;-70
2023/07/08 05:50:36;;;;;;;1.83;0.75;;;;;;;32.05;38.04;101243.59;5127007;28;20050;-72
2023/07/08 05:53:02;;;;;;;1.05;0.90;;;;;;;32.12;37.30;101244.75;5126822;28;20053;-72
2023/07/08 05:55:27;;;;;;;1.23;1.13;;;;;;;32.17;35.91;101247.03;5127120;28;20028;-73
2023/07/08 05:57:53;;;;;;;1.80;1.02;;;;;;;32.08;36.10;101248.69;5126950;28;20079;-68
2023/07/08 06:00:18;;;;;;;1.40;0.80;;;;;;;32.28;37.75;101252.31;5127135;28;20019;-70
2023/07/08 06:02:44;;;;;;;2.67;0.85;;;;;;;32.30;37.99;101249.50;5126887;28;20034;-73
2023/07/08 06:05:09;;;;;;;2.60;0.70;;;;;;;31.48;37.36;101239.44;5126724;28;20049;-72
2023/07/08 06:07:34;;;;;;;2.67;1.33;;;;;;;30.98;37.19;101242.66;5108206;28;20023;-72
2023/07/08 06:10:00;;;;;;;2.88;0.82;;;;;;;30.84;37.75;101247.34;5126720;28;20020;-71
2023/07/08 06:12:26;;;;;;;8.68;1.13;;;;;;;30.17;37.47;101245.44;5126793;28;20030;-72
2023/07/08 06:14:51;;;;;;;2.60;0.93;;;;;;;29.21;38.04;101250.91;5126502;28;20050;-72
2023/07/08 06:17:17;;;;;;;1.00;0.75;;;;;;;28.82;38.94;101251.88;5126998;28;20031;-74
2023/07/08 06:19:43;;;;;;;2.67;1.38;;;;;;;28.13;39.41;101263.00;5126665;28;20490;-74
2023/07/08 06:22:08;;;;;;;1.45;0.88;;;;;;;27.97;39.84;101261.41;5126269;28;20032;-74
2023/07/08 06:24:34;;;;;;;1.45;0.60;;;;;;;27.51;40.47;101263.53;5126731;28;20027;-74
2023/07/08 06:26:59;;;;;;;0.98;0.88;;;;;;;27.15;40.81;101263.22;5126283;28;20051;-74
2023/07/08 06:29:25;;;;;;;3.17;1.35;;;;;;;27.25;41.18;101267.94;5126148;28;20115;-73
2023/07/08 06:31:50;;;;;;;0.90;0.75;;;;;;;27.08;40.91;101264.56;5126557;28;20030;-74
2023/07/08 06:34:16;;;;;;;2.17;1.08;;;;;;;27.00;40.92;101269.53;5126350;28;20030;-74
2023/07/08 06:36:42;;;;;;;4.05;1.20;;;;;;;27.17;40.85;101261.31;5126397;28;20023;-75
2023/07/08 06:39:08;;;;;;;3.78;1.30;;;;;;;27.37;40.48;101266.28;5125793;28;20103;-73
2023/07/08 06:41:34;;;;;;;2.22;1.13;;;;;;;27.38;40.60;101255.50;5126325;28;20379;-74
2023/07/08 06:44:00;;;;;;;4.03;1.10;;;;;;;27.32;40.98;101264.78;5126215;28;20057;-74
2023/07/08 06:46:25;;;;;;;1.65;1.00;;;;;;;27.29;39.56;101264.13;5107777;28;20019;-74
2023/07/08 06:48:50;;;;;;;3.88;1.20;;;;;;;27.07;38.52;101268.19;5125764;28;20024;-74
2023/07/08 06:51:16;;;;;;;3.03;1.00;;;;;;;26.98;39.19;101273.13;5125828;28;20040;-74
2023/07/08 06:53:41;;;;;;;1.60;1.02;;;;;;;27.08;39.54;101272.56;5125939;28;20105;-74
2023/07/08 06:56:08;;;;;;;2.15;1.27;;;;;;;27.17;39.05;101266.66;5125453;28;20019;-75
2023/07/08 06:58:33;;;;;;;1.88;0.88;;;;;;;27.20;39.47;101270.91;5107207;28;20023;-76
2023/07/08 07:00:59;;;;;;;2.13;1.02;;;;;;;27.10;39.29;101268.00;5107408;28;20035;-74
2023/07/08 07:03:24;;;;;;;1.92;1.25;;;;;;;27.45;39.27;101267.47;5125681;28;20044;-75
2023/07/08 07:05:49;;;;;;;1.42;1.00;;;;;;;27.86;39.54;101267.47;5125781;28;20024;-69
2023/07/08 07:08:15;;;;;;;1.80;1.20;;;;;;;27.84;38.92;101259.56;5125290;28;20088;-73
2023/07/08 07:10:40;;;;;;;0.75;0.70;;;;;;;28.00;38.83;101263.84;5107191;28;20043;-76
2023/07/08 07:13:06;;;;;;;2.35;0.63;;;;;;;27.94;39.09;101280.28;5125687;28;20030;-66
2023/07/08 07:15:32;;;;;;;2.22;1.20;;;;;;;27.95;39.20;101282.88;5125489;28;20047;-64
2023/07/08 07:17:57;;;;;;;4.88;1.25;;;;;;;27.99;38.27;101272.81;5125196;28;20087;-67
2023/07/08 07:20:23;;;;;;;2.00;1.40;;;;;;;28.21;37.27;101269.50;5125524;28;20023;-74
2023/07/08 07:22:49;;;;;;;1.88;0.90;;;;;;;28.28;37.41;101264.59;5106860;28;20030;-71
2023/07/08 07:25:15;;;;;;;3.15;1.35;;;;;;;28.17;36.84;101272.50;5125646;28;20028;-71
2023/07/08 07:27:40;;;;;;;1.70;0.85;;;;;;;28.23;37.03;101273.91;5125579;28;20504;-73
2023/07/08 07:30:06;;;;;;;6.22;1.60;;;;;;;28.13;36.08;101269.16;5106940;28;20027;-69
2023/07/08 07:32:33;;;;;;;1.85;1.10;;;;;;;28.11;36.67;101270.25;5125363;28;20030;-69
2023/07/08 07:34:59;;;;;;;1.52;0.90;;;;;;;28.06;36.89;101271.44;5106649;28;20059;-78
2023/07/08 07:37:25;;;;;;;2.20;1.20;;;;;;;28.23;36.63;101273.91;5125010;28;20074;-65
2023/07/08 07:39:51;;;;;;;2.03;0.73;;;;;;;28.53;37.07;101276.22;5124910;28;20089;-75
2023/07/08 07:42:18;;;;;;;1.73;0.80;;;;;;;28.81;37.08;101268.03;5106807;28;20043;-69
2023/07/08 07:44:44;;;;;;;3.17;1.30;;;;;;;29.11;36.94;101269.44;5124949;28;20016;-68
2023/07/08 07:47:09;;;;;;;2.20;0.95;;;;;;;29.43;36.58;101274.22;5125153;28;20024;-75
2023/07/08 07:49:35;;;;;;;1.55;0.80;;;;;;;29.56;36.31;101271.47;5125180;28;20031;-73
2023/07/08 07:52:01;;;;;;;3.78;1.13;;;;;;;29.59;36.08;101267.72;5125118;28;20061;-72
2023/07/08 07:54:26;;;;;;;0.90;0.57;;;;;;;29.84;35.45;101270.34;5124788;28;20487;-73
2023/07/08 07:56:52;;;;;;;2.55;1.10;;;;;;;30.06;34.90;101269.50;5125124;28;20024;-73
2023/07/08 07:59:18;;;;;;;1.40;1.02;;;;;;;30.53;35.42;101272.09;5125041;28;20487;-74
2023/07/08 08:01:43;;;;;;;1.27;0.85;;;;;;;30.89;35.00;101263.91;5106618;28;20092;-72
2023/07/08 08:04:10;;;;;;;1.65;0.85;;;;;;;31.26;34.63;101270.69;5106345;28;20020;-74
2023/07/08 08:06:36;;;;;;;1.98;1.02;;;;;;;31.09;30.14;101264.06;5124847;28;20494;-72
2023/07/08 08:09:03;;;;;;;1.42;0.70;;;;;;;30.73;31.69;101271.47;5126071;28;20073;-72
2023/07/08 08:11:29;;;;;;;1.92;0.98;;;;;;;30.81;30.21;101263.69;5110745;28;20023;-73
2023/07/08 08:13:54;;;;;;;5.43;0.95;;;;;;;30.53;30.13;101264.06;5128948;28;20030;-73
2023/07/08 08:16:21;;;;;;;0.98;0.70;;;;;;;30.79;31.26;101270.97;5128745;28;20072;-71
2023/07/08 08:18:46;;;;;;;1.40;0.80;;;;;;;31.17;30.88;101266.97;5128972;28;20099;-73
2023/07/08 08:21:12;;;;;;;4.70;1.70;;;;;;;31.58;30.65;101271.72;5128818;28;20110;-73
2023/07/08 08:23:37;;;;;;;3.53;1.20;;;;;;;32.01;30.92;101274.38;5128638;28;20019;-73
2023/07/08 08:26:03;;;;;;;1.48;1.10;;;;;;;32.46;31.07;101275.00;5128707;28;20027;-72
2023/07/08 08:28:28;;;;;;;2.13;0.95;;;;;;;32.68;29.53;101267.72;5128581;28;20023;-74
2023/07/08 08:30:53;;;;;;;1.70;0.95;;;;;;;32.81;29.74;101268.31;5110256;28;20020;-72
2023/07/08 08:33:19;;;;;;;2.55;1.10;;;;;;;32.92;28.97;101275.41;5128561;28;20027;-74
2023/07/08 08:35:45;;;;;;;0.88;0.70;;;;;;;32.56;28.79;101283.94;5128684;28;20114;-72
2023/07/08 08:38:11;;;;;;;3.40;0.88;;;;;;;32.70;28.06;101282.72;5128194;28;20020;-73
2023/07/08 08:40:37;;;;;;;4.45;1.33;;;;;;;32.60;27.94;101280.03;5128465;28;20075;-73
2023/07/08 08:43:10;;;;;;;9.30;1.20;;;;;;;32.81;28.30;101283.59;5128305;28;20051;-73
2023/07/08 08:45:57;;;;;;;3.30;1.33;;;;;;;32.78;27.81;101279.34;5110198;28;20042;-73
2023/07/08 08:48:25;;;;;;;0.80;0.63;;;;;;;32.74;27.96;101284.16;5128484;28;20024;-72
2023/07/08 08:50:53;;;;;;;1.95;0.77;;;;;;;32.89;27.87;101278.38;5128401;28;20026;-74
2023/07/08 08:53:22;;;;;;;2.25;1.02;;;;;;;33.04;28.50;101278.81;5128061;28;20049;-71
2023/07/08 08:55:56;;;;;;;1.38;0.75;;;;;;;33.16;27.75;101273.31;5128206;28;20035;-73
2023/07/08 08:58:41;;;;;;;4.45;0.95;;;;;;;33.58;27.20;101283.75;5128096;28;20035;-71
2023/07/08 09:01:11;;;;;;;1.23;0.77;;;;;;;33.36;27.02;101280.41;5128205;28;20012;-74
2023/07/08 09:03:37;;;;;;;2.23;1.23;;;;;;;33.09;27.01;101292.72;5128327;28;20019;-72
2023/07/08 09:06:14;;;;;;;0.32;0.30;;;;;;;33.31;27.65;101290.72;5128001;28;20296;-73
2023/07/08 09:08:41;;;;;;;1.67;0.77;;;;;;;33.62;26.41;101287.91;5127223;28;20050;-71
2023/07/08 09:11:15;;;;;;;1.60;0.85;;;;;;;33.65;26.26;101293.97;5127298;28;20031;-73
2023/07/08 09:13:41;;;;;;;4.03;0.88;;;;;;;33.85;26.85;101298.34;5127752;28;20023;-72
2023/07/08 09:16:37;;;;;;;0.80;0.57;;;;;;;33.79;25.69;101296.22;5109410;28;20032;-73
2023/07/08 09:19:11;;;;;;;3.25;1.17;;;;;;;33.60;26.43;101303.31;5108930;28;20020;-72
2023/07/08 09:22:33;;;;;;;2.22;0.70;;;;;;;33.78;26.29;101297.22;5127749;28;20031;-72
2023/07/08 09:25:12;;;;;;;1.42;0.85;;;;;;;33.87;26.36;101296.34;5064313;28;20029;-73
2023/07/08 09:27:37;;;;;;;0.65;0.50;;;;;;;33.93;25.50;101291.38;5064324;28;20111;-73
2023/07/08 09:30:03;;;;;;;1.23;0.85;;;;;;;33.70;25.80;101283.63;5064070;28;20540;-71
2023/07/08 09:32:28;;;;;;;1.08;0.68;;;;;;;33.53;25.37;101291.44;5064531;28;20036;-74
2023/07/08 09:35:03;;;;;;;1.75;0.75;;;;;;;33.37;25.16;101292.84;5064109;28;20036;-72
2023/07/08 09:37:33;;;;;;;1.45;0.98;;;;;;;32.85;25.22;101288.56;5064138;28;20029;-72
2023/07/08 09:40:02;;;;;;;2.08;1.17;;;;;;;32.92;26.42;101291.53;5064151;28;20422;-73
2023/07/08 09:42:31;;;;;;;1.90;0.80;;;;;;;32.92;26.85;101293.38;5047360;28;20098;-73
2023/07/08 09:44:58;;;;;;;1.05;0.70;;;;;;;32.82;26.56;101296.91;5064362;28;20025;-73
2023/07/08 09:47:30;;;;;;;2.08;0.85;;;;;;;33.15;25.75;101302.06;5063750;28;20043;-73
2023/07/08 09:49:57;;;;;;;2.75;1.05;;;;;;;33.29;25.38;101294.56;5063832;28;20061;-72
2023/07/08 09:52:23;;;;;;;2.60;1.45;;;;;;;33.30;25.00;101294.41;5063777;28;20029;-71
2023/07/08 09:54:49;;;;;;;1.00;0.65;;;;;;;33.22;26.08;101299.66;5079434;28;20035;-70
2023/07/08 09:57:28;;;;;;;1.02;0.77;;;;;;;33.25;26.36;101294.00;5127059;28;20019;-80
2023/07/08 09:59:59;;;;;;;3.10;0.77;;;;;;;33.85;26.35;101302.88;5127142;28;20022;-73
2023/07/08 10:02:57;;;;;;;2.33;0.95;;;;;;;34.28;26.19;101297.97;5126785;28;20024;-77
2023/07/08 10:05:24;;;;;;;1.65;0.70;;;;;;;34.45;24.63;101300.84;5114700;28;20031;-71
2023/07/08 10:07:56;;;;;;;3.58;0.90;;;;;;;34.32;25.15;101302.03;5108315;28;20016;-71
2023/07/08 10:10:34;;;;;;;2.05;1.00;;;;;;;34.50;25.93;101301.25;5126588;28;20141;-71
2023/07/08 10:13:22;;;;;;;6.63;0.75;;;;;;;34.84;25.86;101297.13;5126665;28;20023;-72
2023/07/08 10:16:12;;;;;;;1.58;0.80;;;;;;;34.64;25.70;101299.03;5126708;28;20087;-71
2023/07/08 10:18:37;;;;;;;1.92;1.00;;;;;;;34.56;25.95;101303.34;5126826;28;20041;-75
2023/07/08 10:21:19;;;;;;;1.30;0.80;;;;;;;34.43;26.24;101295.59;5126827;28;20020;-70
2023/07/08 10:23:54;;;;;;;0.85;0.68;;;;;;;34.22;25.02;101301.25;5108025;28;20020;-73
2023/07/08 10:26:28;;;;;;;1.85;0.95;;;;;;;33.93;25.45;101302.16;5108174;28;20027;-72
2023/07/08 10:29:07;;;;;;;4.30;1.23;;;;;;;33.82;25.83;101293.25;5126318;28;20027;-74
2023/07/08 10:31:54;;;;;;;2.25;0.85;;;;;;;33.60;26.30;101297.06;5107383;28;20023;-78
2023/07/08 10:34:19;;;;;;;1.98;1.10;;;;;;;33.53;26.80;101299.50;5126504;28;20028;-77
2023/07/08 10:36:50;;;;;;;1.50;0.88;;;;;;;33.74;26.76;101306.59;5126291;28;20034;-71
2023/07/08 10:39:34;;;;;;;;;;;;;;;33.72;25.69;101297.81;5107892;28;20059;-75
2023/07/08 10:42:13;;;;;;;2.63;1.20;;;;;;;33.43;26.52;101298.66;5107856;28;19967;-76
2023/07/08 10:44:58;;;;;;;1.55;1.00;;;;;;;33.33;26.54;101288.75;5126243;28;20023;-72
2023/07/08 10:47:40;;;;;;;1.65;0.82;;;;;;;32.89;26.83;101298.03;5126069;28;20424;-71
2023/07/08 10:50:40;;;;;;;1.70;0.85;;;;;;;32.53;27.22;101303.03;5125987;28;20027;-74
2023/07/08 10:53:27;;;;;;;1.03;0.90;;;;;;;32.47;27.34;101304.41;5062679;28;20088;-74
2023/07/08 10:55:59;;;;;;;2.45;1.00;;;;;;;32.26;27.66;101299.09;5063110;28;20492;-72
2023/07/08 10:58:27;;;;;;;2.42;0.95;;;;;;;31.97;28.17;101300.63;5062975;28;20481;-72
2023/07/08 11:01:03;;;;;;;2.88;1.05;;;;;;;31.62;28.06;101302.66;5062776;28;20039;-72
2023/07/08 11:03:35;;;;;;;2.28;1.08;;;;;;;31.12;29.08;101297.84;5062824;28;20029;-70
2023/07/08 11:06:09;;;;;;;1.88;1.00;;;;;;;30.42;29.57;101304.25;5046176;28;20033;-71
2023/07/08 11:08:41;;;;;;;10.57;1.13;;;;;;;29.30;30.76;101311.72;5062049;28;20048;-71
2023/07/08 11:11:11;;;;;;;1.77;0.93;;;;;;;28.42;32.13;101305.53;5063007;28;20059;-71
2023/07/08 11:13:44;;;;;;;1.30;0.77;;;;;;;27.85;32.82;101297.78;5062594;28;20036;-70
2023/07/08 11:16:20;;;;;;;5.28;1.00;;;;;;;27.33;32.99;101309.13;5062999;28;20488;-71
2023/07/08 11:19:15;;;;;;;1.48;0.93;;;;;;;26.71;33.63;101292.59;5045967;28;20028;-72
2023/07/08 11:21:45;;;;;;;2.08;1.10;;;;;;;26.46;33.99;101303.94;5056935;28;20060;-71
2023/07/08 11:24:20;;;;;;;1.00;0.80;;;;;;;26.10;35.11;101309.56;5062462;28;20025;-72
2023/07/08 11:27:04;;;;;;;4.18;1.55;;;;;;;25.47;35.97;101312.31;5085833;28;20047;-72
2023/07/08 11:29:59;;;;;;;1.38;0.90;;;;;;;25.06;36.62;101312.84;5125324;28;20024;-70
2023/07/08 11:32:27;;;;;;;2.80;1.02;;;;;;;24.75;36.98;101310.91;5098809;28;20031;-71